Terminal Aerodrome Forecast
Issued by NWS

Home | Current Version | Previous Version | Text Only | Print | Product List | Glossary On
Versions: 1 2 3 4 5 6 7 8 9 10 11 12 13 14 15 16 17 18 19 20 21 22 23 24 25 26 27 28 29 30 31 32
487
FTUS45 KGJT 262257 AAA
TAFEGE
TAF AMD
KEGE 262257Z 2623/2718 34008KT P6SM VCTS SCT050CB BKN120
      TEMPO 2623/2702 -SHRA BKN050
     FM270200 03005KT P6SM VCSH OVC090
     FM270600 VRB03KT P6SM BKN100
     FM271200 VRB03KT P6SM VCSH SCT070=

USA.gov is the U.S. government's official web portal to all federal, state and local government web resources and services.